createdAt,value
2023-04-03T00:01:58.813Z,66.38
2023-04-03T00:07:02.318Z,66.19
2023-04-03T00:12:07.486Z,66.25
2023-04-03T00:17:11.011Z,66.30
2023-04-03T00:22:14.693Z,66.14
2023-04-03T00:27:19.588Z,66.19
2023-04-03T00:32:22.915Z,65.79
2023-04-03T00:37:26.852Z,66.46
2023-04-03T00:42:31.717Z,66.86
2023-04-03T00:47:35.131Z,66.85
2023-04-03T00:52:41.055Z,66.51
2023-04-03T00:57:47.373Z,65.88
2023-04-03T01:02:51.274Z,66.11
2023-04-03T01:07:55.768Z,66.09
2023-04-03T01:13:02.849Z,66.04
2023-04-03T01:18:06.567Z,65.88
2023-04-03T01:23:24.662Z,65.81
2023-04-03T01:28:32.356Z,65.87
2023-04-03T01:33:37.841Z,65.77
2023-04-03T01:38:41.597Z,65.98
2023-04-03T01:43:45.131Z,66.08
2023-04-03T01:48:51.310Z,65.97
2023-04-03T01:53:54.968Z,65.79
2023-04-03T01:58:58.428Z,65.82
2023-04-03T02:04:03.335Z,65.77
2023-04-03T02:09:06.677Z,65.80
2023-04-03T02:14:10.501Z,65.91
2023-04-03T02:19:35.284Z,65.33
2023-04-03T02:24:40.177Z,65.38
2023-04-03T02:29:43.580Z,65.43
2023-04-03T02:34:48.477Z,65.37
2023-04-03T02:39:51.624Z,65.35
2023-04-03T02:44:55.030Z,65.60
2023-04-03T02:49:59.883Z,65.75
2023-04-03T02:55:03.942Z,64.99
2023-04-03T03:00:09.043Z,65.37
2023-04-03T03:05:13.943Z,65.56
2023-04-03T03:10:17.680Z,65.70
2023-04-03T03:15:21.323Z,65.65
2023-04-03T03:20:26.149Z,65.61
2023-04-03T03:25:29.378Z,64.87
2023-04-03T03:30:32.786Z,65.63
2023-04-03T03:35:38.062Z,65.75
2023-04-03T03:40:41.706Z,65.71
2023-04-03T03:45:45.836Z,65.99
2023-04-03T03:50:51.404Z,66.09
2023-04-03T03:55:54.885Z,65.57
2023-04-03T04:00:58.327Z,65.35
2023-04-03T04:06:03.207Z,65.57
2023-04-03T04:11:06.356Z,65.24
2023-04-03T04:16:10.993Z,65.54
2023-04-03T04:21:15.856Z,64.91
2023-04-03T04:26:19.009Z,64.67
2023-04-03T04:31:22.500Z,64.82
2023-04-03T04:36:27.465Z,64.39
2023-04-03T04:41:31.143Z,64.10
2023-04-03T04:46:34.777Z,63.69
2023-04-03T04:51:50.959Z,63.18
2023-04-03T04:56:55.724Z,62.78
2023-04-03T05:01:59.315Z,62.41
2023-04-03T05:07:04.214Z,62.04
2023-04-03T05:12:07.439Z,61.70
2023-04-03T05:17:11.033Z,61.42
2023-04-03T05:22:16.227Z,61.48
2023-04-03T05:27:19.724Z,61.03
2023-04-03T05:32:23.278Z,61.04
2023-04-03T05:37:28.245Z,60.61
2023-04-03T05:42:32.120Z,60.21
2023-04-03T05:47:35.634Z,59.78
2023-04-03T05:52:45.399Z,58.71
2023-04-03T05:57:48.934Z,57.86
2023-04-03T06:02:52.791Z,57.18
2023-04-03T06:07:58.262Z,57.05
2023-04-03T06:13:01.853Z,55.95
2023-04-03T06:18:05.566Z,55.59
2023-04-03T06:23:11.539Z,54.61
2023-04-03T06:28:15.108Z,53.58
2023-04-03T06:33:18.682Z,52.07
2023-04-03T06:38:23.554Z,51.20
2023-04-03T06:43:27.274Z,47.18
2023-04-03T06:48:31.235Z,43.13
2023-04-03T06:53:36.297Z,39.98
2023-04-03T06:58:39.746Z,38.18
2023-04-03T07:03:43.769Z,39.67
2023-04-03T07:08:49.408Z,40.14
2023-04-03T07:13:53.289Z,40.12
2023-04-03T07:18:57.201Z,37.63
2023-04-03T07:24:02.214Z,35.13
2023-04-03T07:29:05.768Z,34.76
2023-04-03T07:34:09.256Z,36.23
2023-04-03T07:39:14.154Z,35.59
2023-04-03T07:44:17.625Z,34.88
2023-04-03T07:49:21.121Z,36.84
2023-04-03T07:54:26.091Z,38.10
2023-04-03T07:59:29.590Z,40.00
2023-04-03T08:04:33.337Z,42.06
2023-04-03T08:09:38.487Z,41.64
2023-04-03T08:14:42.014Z,42.31
2023-04-03T08:19:45.630Z,41.09
2023-04-03T08:24:58.548Z,40.10
2023-04-03T08:30:02.696Z,37.89
2023-04-03T08:35:07.189Z,37.13
2023-04-03T08:40:17.089Z,36.03
2023-04-03T08:45:37.964Z,35.99
2023-04-03T08:50:43.960Z,33.75
2023-04-03T08:55:51.579Z,31.88
2023-04-03T09:01:00.902Z,31.92
2023-04-03T09:06:09.291Z,32.04
2023-04-03T09:11:23.126Z,32.74
2023-04-03T09:16:45.691Z,33.41
2023-04-03T09:21:49.350Z,34.02
2023-04-03T09:27:01.011Z,35.13
2023-04-03T09:32:28.571Z,34.84
2023-04-03T09:37:42.030Z,34.75
2023-04-03T09:42:52.038Z,35.49
2023-04-03T09:48:15.420Z,35.38
2023-04-03T09:53:31.269Z,35.38
2023-04-03T09:58:49.652Z,34.96
2023-04-03T10:04:08.277Z,35.05
2023-04-03T10:09:22.140Z,35.86
2023-04-03T10:14:27.315Z,35.78
2023-04-03T10:19:43.719Z,36.00
2023-04-03T10:24:54.222Z,35.25
2023-04-03T10:30:06.361Z,35.99
2023-04-03T10:35:18.757Z,35.86
2023-04-03T10:40:34.090Z,35.45
2023-04-03T10:45:54.396Z,35.77
2023-04-03T10:51:05.460Z,35.32
2023-04-03T10:56:18.005Z,36.03
2023-04-03T11:01:27.890Z,36.74
2023-04-03T11:06:39.297Z,37.53
2023-04-03T11:11:45.285Z,37.17
2023-04-03T11:16:56.051Z,37.54
2023-04-03T11:22:06.312Z,37.63
2023-04-03T11:27:19.363Z,37.73
2023-04-03T11:33:16.559Z,38.32
2023-04-03T11:38:25.249Z,38.81
2023-04-03T11:43:30.893Z,39.29
2023-04-03T11:49:02.549Z,40.08
2023-04-03T11:54:47.618Z,39.72
2023-04-03T11:59:51.175Z,40.23
2023-04-03T12:05:30.715Z,40.23
2023-04-03T12:10:34.206Z,39.86
2023-04-03T12:15:58.279Z,39.45
2023-04-03T12:21:04.479Z,40.08
2023-04-03T12:26:24.463Z,40.47
2023-04-03T12:31:42.420Z,40.49
2023-04-03T12:37:01.465Z,40.47
2023-04-03T12:42:17.391Z,40.91
2023-04-03T12:47:34.168Z,40.43
2023-04-03T12:52:50.375Z,40.23
2023-04-03T12:57:54.703Z,41.03
2023-04-03T13:02:58.786Z,41.04
2023-04-03T13:08:07.216Z,41.50
2023-04-03T13:13:13.357Z,41.57
2023-04-03T13:18:32.238Z,41.92
2023-04-03T13:23:40.927Z,42.21
2023-04-03T13:28:45.090Z,42.59
2023-04-03T13:33:57.650Z,43.09
2023-04-03T13:39:06.243Z,43.09
2023-04-03T13:44:32.011Z,43.43
2023-04-03T13:49:41.424Z,43.96
2023-04-03T13:54:49.999Z,44.95
2023-04-03T13:59:54.101Z,45.10
2023-04-03T14:05:02.333Z,45.19
2023-04-03T14:10:09.241Z,46.04
2023-04-03T14:15:20.430Z,46.99
2023-04-03T14:20:26.813Z,47.47
2023-04-03T14:25:32.286Z,48.01
2023-04-03T14:30:36.751Z,49.49
2023-04-03T14:35:40.400Z,48.69
2023-04-03T14:40:45.230Z,49.89
2023-04-03T14:45:49.080Z,50.91
2023-04-03T14:51:04.580Z,52.07
2023-04-03T14:56:16.800Z,53.72
2023-04-03T15:01:21.043Z,53.21
2023-04-03T15:06:24.612Z,53.55
2023-04-03T15:11:29.590Z,55.17
2023-04-03T15:16:33.062Z,55.71
2023-04-03T15:21:37.098Z,56.76
2023-04-03T15:26:42.720Z,57.76
2023-04-03T15:31:46.149Z,57.97
2023-04-03T15:36:49.839Z,58.21
2023-04-03T15:41:54.930Z,59.00
2023-04-03T15:46:58.456Z,59.67
2023-04-03T15:52:02.162Z,60.23
2023-04-03T15:57:07.068Z,61.09
2023-04-03T16:02:15.167Z,61.79
2023-04-03T16:07:18.720Z,61.73
2023-04-03T16:12:23.629Z,62.46
2023-04-03T16:17:28.741Z,62.58
2023-04-03T16:22:32.742Z,62.49
2023-04-03T16:27:37.688Z,63.12
2023-04-03T16:32:42.285Z,62.87
2023-04-03T16:37:45.803Z,63.04
2023-04-03T16:42:50.867Z,63.20
2023-04-03T16:47:54.347Z,63.52
2023-04-03T16:52:57.950Z,63.15
2023-04-03T16:58:02.826Z,63.91
2023-04-03T17:03:06.430Z,64.09
2023-04-03T17:08:14.161Z,64.63
2023-04-03T17:13:21.866Z,64.59
2023-04-03T17:18:25.400Z,64.14
2023-04-03T17:23:30.677Z,64.10
2023-04-03T17:28:35.576Z,64.00
2023-04-03T17:33:39.109Z,64.07
2023-04-03T17:38:42.651Z,64.50
2023-04-03T17:43:47.822Z,64.41
2023-04-03T17:48:51.625Z,64.36
2023-04-03T17:53:55.125Z,64.18
2023-04-03T17:59:00.187Z,65.01
2023-04-03T18:04:05.445Z,65.23
2023-04-03T18:09:11.458Z,65.92
2023-04-03T18:14:19.121Z,65.69
2023-04-03T18:19:23.714Z,66.31
2023-04-03T18:24:27.583Z,65.53
2023-04-03T18:29:35.054Z,66.40
2023-04-03T18:34:38.489Z,66.47
2023-04-03T18:39:41.990Z,66.40
2023-04-03T18:44:49.735Z,66.68
2023-04-03T18:49:53.300Z,66.40
2023-04-03T18:54:57.048Z,66.52
2023-04-03T19:00:01.949Z,66.54
2023-04-03T19:05:06.824Z,66.72
2023-04-03T19:10:17.170Z,66.73
2023-04-03T19:15:24.576Z,67.38
2023-04-03T19:20:28.579Z,67.68
2023-04-03T19:25:32.126Z,67.11
2023-04-03T19:30:39.537Z,67.97
2023-04-03T19:35:43.341Z,67.23
2023-04-03T19:40:47.612Z,67.25
2023-04-03T19:45:53.710Z,67.62
2023-04-03T19:50:57.177Z,67.17
2023-04-03T19:56:00.964Z,67.45
2023-04-03T20:01:07.020Z,67.25
2023-04-03T20:06:10.689Z,67.31
2023-04-03T20:11:14.416Z,67.93
2023-04-03T20:16:22.531Z,67.46
2023-04-03T20:21:30.758Z,67.85
2023-04-03T20:26:37.391Z,67.38
2023-04-03T20:31:43.453Z,67.07
2023-04-03T20:36:49.676Z,66.96
2023-04-03T20:41:53.708Z,67.21
2023-04-03T20:46:59.218Z,67.23
2023-04-03T20:52:04.969Z,67.24
2023-04-03T20:57:08.438Z,67.31
2023-04-03T21:02:13.448Z,67.28
2023-04-03T21:07:54.636Z,67.12
2023-04-03T21:13:35.022Z,66.94
2023-04-03T21:19:08.761Z,66.99
2023-04-03T21:24:12.712Z,67.07
2023-04-03T21:29:16.828Z,66.81
2023-04-03T21:34:23.697Z,67.17
2023-04-03T21:39:27.325Z,66.83
2023-04-03T21:44:32.425Z,67.17
2023-04-03T21:49:37.358Z,67.19
2023-04-03T21:54:40.785Z,67.21
2023-04-03T21:59:45.468Z,67.44
2023-04-03T22:04:50.441Z,67.01
2023-04-03T22:09:53.625Z,66.54
2023-04-03T22:14:57.076Z,66.68
2023-04-03T22:20:02.034Z,67.18
2023-04-03T22:25:07.509Z,67.17
2023-04-03T22:30:11.696Z,67.07
2023-04-03T22:35:16.709Z,67.04
2023-04-03T22:40:20.479Z,67.06
2023-04-03T22:45:23.951Z,66.88
2023-04-03T22:50:29.230Z,66.89
2023-04-03T22:55:32.789Z,67.01
2023-04-03T23:00:36.410Z,67.34
2023-04-03T23:05:42.195Z,67.71
2023-04-03T23:10:46.040Z,68.01
2023-04-03T23:15:54.402Z,67.65
2023-04-03T23:21:00.909Z,67.64
2023-04-03T23:26:04.488Z,67.86
2023-04-03T23:31:08.277Z,67.57
2023-04-03T23:36:16.281Z,67.58
2023-04-03T23:41:19.792Z,67.50
2023-04-03T23:46:23.343Z,67.00
2023-04-03T23:51:28.406Z,67.09
2023-04-03T23:56:32.384Z,67.26
